Time;durP1;ratioP1;P1;durP2;ratioP2;P2;SDS_P1;SDS_P2;PMS_P1;PMS_P2;Temp;Humidity;BMP_temperature;BMP_pressure;BME280_temperature;BME280_humidity;BME280_pressure;Samples;Min_cycle;Max_cycle;Signal;HPM_P1;HPM_P2
2023/03/26 00:01:04;;;;;;;117.63;108.63;;;7.40;93.70;;;;;;5039131;28;20181;-91
2023/03/26 00:03:32;;;;;;;119.23;110.67;;;7.40;93.70;;;;;;5039329;28;20142;-92
2023/03/26 00:06:11;;;;;;;120.77;111.37;;;7.40;93.80;;;;;;5039103;28;20212;-92
2023/03/26 00:08:38;;;;;;;122.93;114.40;;;7.40;93.80;;;;;;5039164;28;20177;-92
2023/03/26 00:11:09;;;;;;;115.03;106.23;;;7.40;93.90;;;;;;5039104;28;20158;-93
2023/03/26 00:13:40;;;;;;;113.87;106.10;;;7.40;93.90;;;;;;5039024;28;20172;-93
2023/03/26 00:16:35;;;;;;;;;;;;;;;;;;;;;
2023/03/26 00:50:15;;;;;;;105.87;99.13;;;7.00;93.60;;;;;;5007897;28;20206;-93
2023/03/26 00:52:43;;;;;;;107.77;100.13;;;7.00;93.40;;;;;;5015883;28;20194;-93
2023/03/26 00:55:09;;;;;;;104.50;97.10;;;7.00;93.40;;;;;;5013084;28;20194;-94
2023/03/26 00:57:36;;;;;;;104.57;96.03;;;6.90;93.40;;;;;;5015659;28;20225;-92
2023/03/26 01:00:07;;;;;;;100.73;93.57;;;7.00;93.40;;;;;;5013817;28;20186;-92
2023/03/26 01:02:33;;;;;;;98.77;91.33;;;6.80;93.30;;;;;;5016142;28;20158;-93
2023/03/26 01:05:01;;;;;;;100.70;92.77;;;6.80;93.10;;;;;;5018523;28;20181;-92
2023/03/26 01:07:27;;;;;;;105.03;96.60;;;6.80;93.30;;;;;;5018336;28;20181;-92
2023/03/26 01:09:56;;;;;;;95.50;88.40;;;6.70;93.20;;;;;;5018658;28;20177;-90
2023/03/26 01:12:30;;;;;;;94.70;87.90;;;6.70;93.10;;;;;;5017264;28;20176;-92
2023/03/26 01:15:01;;;;;;;101.17;93.43;;;6.70;93.10;;;;;;5018762;28;20169;-91
2023/03/26 01:17:36;;;;;;;101.47;93.97;;;6.70;93.20;;;;;;5018211;28;20237;-93
2023/03/26 01:20:09;;;;;;;103.17;95.83;;;6.70;93.20;;;;;;5018597;28;20197;-92
2023/03/26 01:22:36;;;;;;;108.20;99.50;;;6.70;93.20;;;;;;5018718;28;20166;-92
2023/03/26 01:25:02;;;;;;;107.30;99.27;;;6.60;93.30;;;;;;5018521;28;20170;-90
2023/03/26 01:27:47;;;;;;;106.07;98.33;;;6.60;93.30;;;;;;5018417;28;20190;-92
2023/03/26 01:30:33;;;;;;;110.63;102.73;;;6.60;93.40;;;;;;5018254;28;20201;-92
2023/03/26 01:33:12;;;;;;;100.47;92.37;;;6.60;93.50;;;;;;5018591;28;20193;-92
2023/03/26 01:35:51;;;;;;;102.27;94.13;;;6.60;93.50;;;;;;5018642;28;20162;-93
2023/03/26 01:38:58;;;;;;;103.43;95.53;;;6.60;93.50;;;;;;5018378;28;20197;-92
2023/03/26 01:41:41;;;;;;;87.30;80.07;;;6.60;93.50;;;;;;5018183;28;20160;-93
2023/03/26 01:44:32;;;;;;;85.83;80.00;;;6.60;93.30;;;;;;5018292;28;20162;-91
2023/03/26 01:46:59;;;;;;;67.43;62.73;;;6.50;92.90;;;;;;5018019;28;20210;-91
2023/03/26 01:49:27;;;;;;;61.77;56.27;;;6.50;92.30;;;;;;5018186;28;20221;-92
2023/03/26 01:51:55;;;;;;;58.17;52.70;;;6.60;92.10;;;;;;5017890;28;20174;-92
2023/03/26 01:54:24;;;;;;;57.53;52.47;;;6.60;91.90;;;;;;5017791;28;20178;-92
2023/03/26 01:57:05;;;;;;;55.63;50.77;;;6.60;91.70;;;;;;5017183;28;20182;-91
2023/03/26 01:59:53;;;;;;;58.57;53.23;;;6.60;91.40;;;;;;5018259;28;20162;-91
2023/03/26 02:02:37;;;;;;;54.40;49.47;;;6.60;91.50;;;;;;5018308;28;20238;-92
2023/03/26 02:05:21;;;;;;;59.00;53.83;;;6.60;91.70;;;;;;5018027;28;20155;-90
2023/03/26 02:07:54;;;;;;;58.87;53.43;;;6.50;91.50;;;;;;5018229;28;20186;-90
2023/03/26 02:10:25;;;;;;;59.77;54.90;;;6.60;91.50;;;;;;5018191;28;20163;-92
2023/03/26 02:12:51;;;;;;;61.90;57.27;;;6.60;91.50;;;;;;5020930;28;20197;-91
2023/03/26 02:15:17;;;;;;;64.10;58.07;;;6.50;91.60;;;;;;5021734;28;20193;-92
2023/03/26 02:17:43;;;;;;;64.43;59.97;;;6.60;91.70;;;;;;5021397;28;20209;-92
2023/03/26 02:20:12;;;;;;;69.50;63.83;;;6.50;91.80;;;;;;5021466;28;20174;-92
2023/03/26 02:22:44;;;;;;;67.43;62.93;;;6.40;92.00;;;;;;5021454;28;20155;-92
2023/03/26 02:25:20;;;;;;;63.63;59.23;;;6.30;92.20;;;;;;5021037;28;20154;-92
2023/03/26 02:27:49;;;;;;;68.03;63.23;;;6.20;92.20;;;;;;5021408;28;20198;-91
2023/03/26 02:30:20;;;;;;;68.20;63.60;;;6.10;92.30;;;;;;5021247;28;20242;-93
2023/03/26 02:32:46;;;;;;;66.93;62.60;;;6.00;92.40;;;;;;5021727;28;20173;-91
2023/03/26 02:35:12;;;;;;;68.53;63.30;;;6.00;92.40;;;;;;5021325;28;20170;-92
2023/03/26 02:37:45;;;;;;;69.80;64.97;;;6.00;92.50;;;;;;5021199;28;20190;-92
2023/03/26 02:40:11;;;;;;;75.10;69.73;;;6.00;92.60;;;;;;5021314;28;20217;-90
2023/03/26 02:42:38;;;;;;;74.97;69.63;;;6.00;92.60;;;;;;5021033;28;20173;-93
2023/03/26 02:45:05;;;;;;;71.77;66.37;;;6.00;92.70;;;;;;5021095;28;20196;-91
2023/03/26 02:47:32;;;;;;;79.23;74.07;;;5.90;92.70;;;;;;5020927;28;20182;-93
2023/03/26 02:49:58;;;;;;;78.60;72.27;;;6.00;92.90;;;;;;5020990;28;20181;-92
2023/03/26 02:52:24;;;;;;;77.83;72.40;;;5.90;92.90;;;;;;5021046;28;20174;-91
2023/03/26 02:54:49;;;;;;;82.00;74.37;;;5.90;93.00;;;;;;5020999;28;20158;-91
2023/03/26 02:57:15;;;;;;;81.27;75.33;;;6.00;93.00;;;;;;5020687;28;20189;-91
2023/03/26 02:59:41;;;;;;;75.83;70.07;;;5.90;93.00;;;;;;5020897;28;20182;-92
2023/03/26 03:02:06;;;;;;;85.93;79.80;;;5.90;93.10;;;;;;5020848;28;20161;-92
2023/03/26 03:04:32;;;;;;;84.40;78.57;;;5.90;93.20;;;;;;5020785;28;20193;-92
2023/03/26 03:07:01;;;;;;;87.57;81.30;;;5.90;93.20;;;;;;5020709;28;20209;-92
2023/03/26 03:09:29;;;;;;;89.03;83.37;;;5.90;93.20;;;;;;5020682;28;20146;-92
2023/03/26 03:11:55;;;;;;;88.07;81.47;;;5.90;93.30;;;;;;5020631;28;20162;-89
2023/03/26 03:14:20;;;;;;;86.07;79.93;;;5.90;93.30;;;;;;5020595;28;20158;-91
2023/03/26 03:16:46;;;;;;;88.23;82.27;;;5.90;93.40;;;;;;5020572;28;20187;-91
2023/03/26 03:19:12;;;;;;;80.77;75.27;;;5.90;93.40;;;;;;5020366;28;20242;-91
2023/03/26 03:21:39;;;;;;;80.30;74.37;;;5.80;93.30;;;;;;5020578;28;20154;-91
2023/03/26 03:24:04;;;;;;;84.30;78.53;;;5.90;93.30;;;;;;5019685;28;20180;-90
2023/03/26 03:26:30;;;;;;;81.87;75.80;;;5.80;93.20;;;;;;5020365;28;20241;-92
2023/03/26 03:28:57;;;;;;;79.73;73.17;;;5.90;93.30;;;;;;5020065;28;20178;-91
2023/03/26 03:31:27;;;;;;;81.90;76.10;;;5.90;93.20;;;;;;5020396;28;20158;-90
2023/03/26 03:33:53;;;;;;;83.60;77.80;;;5.90;93.20;;;;;;5020283;28;20178;-91
2023/03/26 03:36:21;;;;;;;71.43;66.03;;;5.90;93.20;;;;;;5020242;28;20316;-91
2023/03/26 03:38:48;;;;;;;74.83;68.47;;;5.80;92.90;;;;;;5020207;28;20180;-91
2023/03/26 03:41:14;;;;;;;73.37;67.70;;;5.90;92.90;;;;;;5020081;28;20158;-93
2023/03/26 03:43:40;;;;;;;64.13;59.20;;;5.90;92.80;;;;;;5020149;28;20185;-90
2023/03/26 03:46:05;;;;;;;58.73;53.73;;;5.90;92.70;;;;;;5019864;28;20201;-91
2023/03/26 03:48:32;;;;;;;50.80;46.33;;;5.80;92.10;;;;;;5019732;28;20186;-91
2023/03/26 03:50:57;;;;;;;46.17;41.80;;;5.80;91.20;;;;;;5020011;28;20181;-90
2023/03/26 03:53:25;;;;;;;46.53;41.73;;;5.80;90.60;;;;;;5019938;28;20158;-91
2023/03/26 03:55:54;;;;;;;49.20;45.40;;;5.80;90.50;;;;;;5019894;28;20174;-91
2023/03/26 03:58:22;;;;;;;39.43;35.50;;;5.70;90.70;;;;;;5018843;28;20213;-93
2023/03/26 04:00:51;;;;;;;35.17;31.80;;;5.70;89.80;;;;;;5018448;28;20190;-94
2023/03/26 04:03:18;;;;;;;31.03;27.83;;;5.70;88.70;;;;;;5017998;28;20178;-92
2023/03/26 04:05:48;;;;;;;30.03;27.07;;;5.80;87.60;;;;;;5018639;28;20219;-94
2023/03/26 04:08:17;;;;;;;36.90;31.10;;;5.80;87.80;;;;;;5019437;28;20189;-92
2023/03/26 04:10:44;;;;;;;34.27;28.03;;;5.80;88.00;;;;;;5018914;28;20158;-93
2023/03/26 04:13:14;;;;;;;29.33;26.43;;;5.70;87.90;;;;;;5019364;28;20182;-92
2023/03/26 04:15:41;;;;;;;31.97;29.27;;;5.80;88.20;;;;;;5019588;28;20178;-91
2023/03/26 04:18:10;;;;;;;38.37;34.47;;;5.70;88.30;;;;;;5019228;28;20237;-92
2023/03/26 04:20:39;;;;;;;40.07;36.50;;;5.70;88.70;;;;;;5018970;28;20177;-93
2023/03/26 04:23:06;;;;;;;46.90;42.90;;;5.60;89.10;;;;;;5018584;28;20169;-94
2023/03/26 04:25:32;;;;;;;46.73;43.07;;;5.60;89.90;;;;;;5018545;28;20200;-94
2023/03/26 04:28:05;;;;;;;47.90;44.40;;;5.50;90.30;;;;;;5018513;28;20196;-93
2023/03/26 04:30:32;;;;;;;49.17;44.83;;;5.40;90.50;;;;;;5018764;28;20201;-94
2023/03/26 04:33:02;;;;;;;49.10;45.07;;;5.40;90.70;;;;;;5019106;28;20170;-92
2023/03/26 04:35:33;;;;;;;46.97;43.53;;;5.30;90.70;;;;;;5019190;28;20166;-91
2023/03/26 04:37:59;;;;;;;48.10;44.40;;;5.20;90.60;;;;;;5018876;28;20202;-93
2023/03/26 04:40:25;;;;;;;46.03;42.37;;;5.20;90.60;;;;;;5018965;28;20169;-92
2023/03/26 04:42:57;;;;;;;44.43;40.63;;;5.20;90.60;;;;;;5019171;28;20162;-90
2023/03/26 04:45:22;;;;;;;45.80;42.10;;;5.20;90.60;;;;;;5018969;28;20193;-90
2023/03/26 04:47:49;;;;;;;48.47;43.97;;;5.30;90.60;;;;;;5018932;28;20181;-90
2023/03/26 04:50:15;;;;;;;47.00;43.50;;;5.20;90.60;;;;;;5018933;28;20194;-92
2023/03/26 04:52:41;;;;;;;52.53;47.90;;;5.20;90.70;;;;;;5018822;28;20159;-91
2023/03/26 04:55:19;;;;;;;53.90;49.47;;;5.20;90.90;;;;;;5019026;28;20169;-92
2023/03/26 04:57:48;;;;;;;51.77;47.70;;;5.20;91.00;;;;;;5018894;28;20185;-90
2023/03/26 05:00:15;;;;;;;53.10;48.83;;;5.30;91.20;;;;;;5018874;28;20196;-91
2023/03/26 05:02:44;;;;;;;57.33;52.77;;;5.30;91.40;;;;;;5018640;28;20204;-92
2023/03/26 05:05:10;;;;;;;62.50;57.03;;;5.30;91.60;;;;;;5018488;28;20173;-94
2023/03/26 05:07:36;;;;;;;59.30;54.70;;;5.20;91.70;;;;;;5018516;28;20193;-92
2023/03/26 05:10:03;;;;;;;62.30;57.70;;;5.20;91.90;;;;;;5018419;28;20169;-92
2023/03/26 05:12:29;;;;;;;61.53;57.37;;;5.10;92.00;;;;;;5018669;28;20257;-91
2023/03/26 05:14:54;;;;;;;64.37;59.40;;;5.10;92.10;;;;;;5018716;28;20169;-91
2023/03/26 05:17:22;;;;;;;67.00;62.00;;;5.20;92.30;;;;;;5018632;28;20164;-92
2023/03/26 05:19:47;;;;;;;70.83;65.80;;;5.20;92.40;;;;;;5018681;28;20168;-90
2023/03/26 05:22:16;;;;;;;71.60;66.40;;;5.10;92.50;;;;;;5018630;28;20166;-91
2023/03/26 05:24:41;;;;;;;71.03;66.07;;;5.20;92.60;;;;;;5018577;28;20170;-92
2023/03/26 05:27:08;;;;;;;69.30;63.80;;;5.20;92.60;;;;;;5018450;28;20195;-91
2023/03/26 05:29:33;;;;;;;69.50;64.43;;;5.20;92.70;;;;;;5018536;28;20162;-93
2023/03/26 05:31:59;;;;;;;68.60;62.83;;;5.10;92.60;;;;;;5018548;28;20206;-91
2023/03/26 05:34:26;;;;;;;70.43;65.10;;;5.10;92.70;;;;;;5018626;28;20170;-92
2023/03/26 05:36:51;;;;;;;67.00;61.60;;;5.10;92.60;;;;;;5018600;28;20173;-90
2023/03/26 05:39:17;;;;;;;63.00;58.10;;;5.10;92.60;;;;;;5018581;28;20173;-91
2023/03/26 05:41:43;;;;;;;66.83;61.63;;;5.10;92.50;;;;;;5018472;28;20264;-90
2023/03/26 05:44:08;;;;;;;68.47;62.30;;;5.10;92.40;;;;;;5018436;28;20206;-90
2023/03/26 05:46:34;;;;;;;61.47;55.27;;;5.20;92.30;;;;;;5019115;28;20198;-91
2023/03/26 05:49:00;;;;;;;66.20;60.50;;;5.20;92.30;;;;;;5022036;28;20208;-92
2023/03/26 05:51:25;;;;;;;66.53;61.10;;;5.20;92.20;;;;;;5022270;28;20185;-91
2023/03/26 05:53:51;;;;;;;62.47;57.13;;;5.20;92.10;;;;;;5022061;28;20189;-89
2023/03/26 05:56:16;;;;;;;61.67;56.47;;;5.20;92.10;;;;;;5022007;28;20237;-91
2023/03/26 05:58:42;;;;;;;61.30;56.07;;;5.30;92.00;;;;;;5021952;28;20189;-91
2023/03/26 06:01:15;;;;;;;59.63;54.73;;;5.30;92.00;;;;;;5021941;28;20172;-92
2023/03/26 06:03:43;;;;;;;57.87;53.00;;;5.30;91.80;;;;;;5021739;28;20173;-91
2023/03/26 06:06:14;;;;;;;55.13;50.53;;;5.30;91.60;;;;;;5021827;28;20200;-92
2023/03/26 06:08:45;;;;;;;50.90;46.17;;;5.30;91.50;;;;;;5021717;28;20217;-90
2023/03/26 06:11:11;;;;;;;50.00;45.43;;;5.30;91.40;;;;;;5022021;28;20161;-89
2023/03/26 06:13:38;;;;;;;44.27;40.60;;;5.30;91.10;;;;;;5021512;28;20164;-92
2023/03/26 06:16:04;;;;;;;48.63;40.27;;;5.30;90.70;;;;;;5014344;28;20236;-91
2023/03/26 06:18:30;;;;;;;35.90;32.77;;;5.30;90.50;;;;;;5010260;28;20209;-91
2023/03/26 06:20:56;;;;;;;41.07;37.23;;;5.30;89.90;;;;;;5021408;28;20169;-91
2023/03/26 06:23:22;;;;;;;33.57;30.30;;;5.30;90.00;;;;;;5020670;28;20289;-92
2023/03/26 06:25:48;;;;;;;29.60;26.83;;;5.30;89.60;;;;;;5020954;28;20202;-93
2023/03/26 06:28:14;;;;;;;28.10;25.17;;;5.30;89.00;;;;;;5021255;28;20209;-92
2023/03/26 06:30:40;;;;;;;26.70;22.60;;;5.30;88.60;;;;;;5020455;28;20178;-93
2023/03/26 06:33:06;;;;;;;26.13;22.00;;;5.30;87.20;;;;;;5020912;28;20167;-92
2023/03/26 06:35:32;;;;;;;25.57;19.77;;;5.30;86.90;;;;;;5019799;28;20181;-92
2023/03/26 06:37:58;;;;;;;22.50;20.17;;;5.30;85.20;;;;;;5020092;28;20185;-91
2023/03/26 06:40:24;;;;;;;25.83;18.63;;;5.30;85.40;;;;;;5019009;28;20186;-92
2023/03/26 06:42:50;;;;;;;29.40;19.63;;;5.20;82.20;;;;;;5019469;28;20168;-91
2023/03/26 06:45:16;;;;;;;32.67;20.17;;;5.30;81.80;;;;;;5020315;28;20190;-92
2023/03/26 06:47:42;;;;;;;30.03;21.07;;;5.30;82.90;;;;;;5020245;28;20277;-93
2023/03/26 06:50:10;;;;;;;29.53;20.10;;;5.30;83.40;;;;;;5019657;28;20177;-93
2023/03/26 06:52:35;;;;;;;31.17;20.03;;;5.30;83.40;;;;;;5018590;28;20213;-93
2023/03/26 06:55:01;;;;;;;32.97;20.03;;;5.30;82.00;;;;;;5020556;28;20169;-93
2023/03/26 06:57:27;;;;;;;25.77;20.03;;;5.30;82.00;;;;;;5020150;28;20208;-92
2023/03/26 06:59:52;;;;;;;33.20;19.87;;;5.40;82.30;;;;;;5019029;28;20162;-93
2023/03/26 07:02:18;;;;;;;23.40;19.10;;;5.40;82.70;;;;;;5019135;28;20204;-91
2023/03/26 07:04:43;;;;;;;27.67;19.53;;;5.40;82.90;;;;;;5020140;28;20186;-92
2023/03/26 07:07:09;;;;;;;25.33;20.53;;;5.50;83.60;;;;;;5020276;28;20210;-93
2023/03/26 07:09:34;;;;;;;23.97;20.60;;;5.50;83.30;;;;;;5020556;28;20162;-93
2023/03/26 07:12:00;;;;;;;40.53;21.70;;;5.50;83.20;;;;;;5019631;28;20189;-91
2023/03/26 07:14:30;;;;;;;37.40;20.80;;;5.50;82.60;;;;;;5019097;28;20270;-93
2023/03/26 07:16:57;;;;;;;33.50;19.07;;;5.50;83.00;;;;;;5017968;28;20232;-92
2023/03/26 07:19:23;;;;;;;34.00;20.00;;;5.50;82.00;;;;;;5019311;28;20189;-92
2023/03/26 07:21:49;;;;;;;31.10;19.33;;;5.50;82.40;;;;;;5015601;28;20229;-92
2023/03/26 07:24:15;;;;;;;36.63;19.17;;;5.50;80.90;;;;;;5014108;28;20213;-92
2023/03/26 07:26:53;;;;;;;34.07;18.90;;;5.50;81.10;;;;;;5016670;28;20228;-92
2023/03/26 07:29:26;;;;;;;34.07;18.43;;;5.50;81.70;;;;;;5012675;28;20198;-93
2023/03/26 07:32:11;;;;;;;41.53;18.50;;;5.50;81.00;;;;;;5016417;28;20158;-92
2023/03/26 07:34:54;;;;;;;28.53;18.93;;;5.60;81.80;;;;;;5015705;28;20181;-92
2023/03/26 07:37:49;;;;;;;30.27;21.20;;;5.60;82.40;;;;;;5013890;28;20178;-92
2023/03/26 07:40:36;;;;;;;25.13;17.83;;;5.70;81.10;;;;;;5017499;28;20274;-91
2023/03/26 07:43:46;;;;;;;34.87;20.03;;;5.80;81.80;;;;;;5018317;28;20174;-92
2023/03/26 07:46:14;;;;;;;30.33;18.63;;;5.80;81.50;;;;;;4989027;28;20213;-92
2023/03/26 07:48:46;;;;;;;29.10;19.00;;;5.70;79.40;;;;;;5017111;28;20206;-93
2023/03/26 07:51:12;;;;;;;27.70;18.13;;;5.80;80.80;;;;;;5019891;28;20201;-92
2023/03/26 07:53:38;;;;;;;32.10;17.67;;;5.90;81.50;;;;;;5018422;28;20262;-92
2023/03/26 07:56:20;;;;;;;26.90;18.77;;;5.90;80.80;;;;;;5017722;28;20178;-92
2023/03/26 07:58:55;;;;;;;26.93;18.60;;;5.80;78.90;;;;;;5016255;28;20186;-92
2023/03/26 08:01:49;;;;;;;41.07;21.47;;;5.90;79.90;;;;;;5014020;28;20166;-92
2023/03/26 08:04:46;;;;;;;37.87;19.73;;;5.90;78.50;;;;;;5010809;28;20146;-93
2023/03/26 08:07:23;;;;;;;43.47;19.43;;;5.90;78.00;;;;;;5011713;28;20202;-93
2023/03/26 08:09:49;;;;;;;26.07;18.87;;;5.90;77.90;;;;;;5012765;28;20173;-92
2023/03/26 08:12:25;;;;;;;47.20;20.27;;;5.90;78.30;;;;;;5009954;28;20211;-92
2023/03/26 08:15:31;;;;;;;25.03;17.90;;;5.90;77.40;;;;;;5007475;28;20237;-92
2023/03/26 08:18:37;;;;;;;42.17;19.13;;;6.00;78.00;;;;;;5002868;28;20201;-89
2023/03/26 08:21:10;;;;;;;30.13;19.17;;;6.00;78.80;;;;;;4995151;28;20568;-90
2023/03/26 08:23:48;;;;;;;39.73;17.20;;;6.10;78.60;;;;;;4994543;28;20553;-90
2023/03/26 08:26:26;;;;;;;32.20;18.83;;;6.20;78.30;;;;;;5004639;28;20202;-92
2023/03/26 08:29:03;;;;;;;42.30;18.10;;;6.10;77.30;;;;;;5005630;28;20714;-92
2023/03/26 08:31:33;;;;;;;27.27;17.77;;;6.10;77.00;;;;;;4998268;28;20201;-91
2023/03/26 08:34:00;;;;;;;38.63;19.00;;;6.20;77.50;;;;;;5008596;28;20184;-91
2023/03/26 08:36:26;;;;;;;27.40;18.43;;;6.20;76.90;;;;;;5003849;28;20218;-91
2023/03/26 08:38:52;;;;;;;31.03;18.30;;;6.30;77.30;;;;;;4995381;28;20206;-91
2023/03/26 08:41:39;;;;;;;31.17;19.77;;;6.30;77.00;;;;;;5000249;28;20182;-91
2023/03/26 08:44:12;;;;;;;33.67;20.13;;;6.20;75.20;;;;;;5004074;28;20174;-92
2023/03/26 08:46:38;;;;;;;27.57;17.77;;;6.30;76.00;;;;;;5006491;28;20209;-92
2023/03/26 08:49:41;;;;;;;26.97;18.43;;;6.50;77.30;;;;;;5006289;28;20210;-92
2023/03/26 08:52:23;;;;;;;28.53;18.37;;;6.50;76.70;;;;;;4956860;28;20560;-92
2023/03/26 08:55:16;;;;;;;30.43;18.13;;;6.50;74.90;;;;;;5002900;28;20336;-92
2023/03/26 08:58:08;;;;;;;35.37;18.93;;;6.60;76.20;;;;;;5003789;28;20278;-92
2023/03/26 09:01:02;;;;;;;30.13;18.23;;;6.60;74.90;;;;;;5004528;28;20170;-92
2023/03/26 09:03:51;;;;;;;26.93;17.67;;;6.70;75.10;;;;;;5002959;28;20177;-92
2023/03/26 09:06:46;;;;;;;26.93;17.53;;;6.80;76.50;;;;;;5008019;28;20741;-92
2023/03/26 09:09:45;;;;;;;25.97;16.57;;;6.70;74.80;;;;;;5004233;28;20214;-92
2023/03/26 09:12:34;;;;;;;32.83;16.40;;;6.80;75.70;;;;;;5008291;28;20204;-90
2023/03/26 09:15:19;;;;;;;31.63;17.50;;;6.90;74.70;;;;;;4998025;28;20194;-92
2023/03/26 09:17:55;;;;;;;39.23;18.57;;;7.20;74.50;;;;;;5010162;28;20202;-92
2023/03/26 09:20:42;;;;;;;28.73;17.83;;;7.30;73.30;;;;;;5003780;28;20674;-91
2023/03/26 09:23:41;;;;;;;27.97;18.17;;;7.40;72.50;;;;;;5001817;28;20185;-92
2023/03/26 09:26:28;;;;;;;36.87;18.73;;;7.50;71.90;;;;;;5004469;28;20194;-91
2023/03/26 09:29:29;;;;;;;29.40;19.13;;;7.70;72.70;;;;;;5009193;28;20186;-91
2023/03/26 09:32:20;;;;;;;26.07;17.80;;;7.50;71.00;;;;;;4959089;28;20675;-92
2023/03/26 09:35:10;;;;;;;30.67;20.40;;;7.40;71.90;;;;;;5002344;28;20193;-91
2023/03/26 09:37:58;;;;;;;34.30;22.33;;;7.30;71.20;;;;;;4996971;28;20302;-92
2023/03/26 09:40:52;;;;;;;27.37;18.93;;;7.40;71.90;;;;;;4998197;28;20257;-91
2023/03/26 09:43:53;;;;;;;33.73;20.23;;;7.30;71.60;;;;;;4997666;28;20170;-91
2023/03/26 09:46:44;;;;;;;28.83;20.37;;;7.30;71.80;;;;;;4996360;28;20213;-91
2023/03/26 09:49:21;;;;;;;29.80;18.77;;;7.20;71.70;;;;;;4996166;28;20316;-91
2023/03/26 09:51:59;;;;;;;31.80;20.37;;;7.20;72.00;;;;;;4996246;28;20181;-91
2023/03/26 09:54:52;;;;;;;28.53;21.87;;;7.00;71.00;;;;;;4996426;28;20189;-91
2023/03/26 09:57:17;;;;;;;34.10;19.17;;;6.90;70.00;;;;;;4995945;28;20553;-91
2023/03/26 10:00:20;;;;;;;23.80;17.53;;;7.30;71.50;;;;;;4996470;28;20186;-92
2023/03/26 10:03:04;;;;;;;41.27;20.40;;;7.70;71.30;;;;;;4998813;28;20178;-91
2023/03/26 10:06:11;;;;;;;29.73;20.13;;;7.70;70.60;;;;;;4997016;28;20206;-91
2023/03/26 10:09:05;;;;;;;32.20;19.10;;;7.60;69.90;;;;;;4997113;28;20248;-92
2023/03/26 10:11:40;;;;;;;32.30;19.90;;;7.50;70.80;;;;;;4995922;28;20209;-91
2023/03/26 10:14:14;;;;;;;35.33;17.37;;;7.50;70.70;;;;;;4998811;28;20158;-92
2023/03/26 10:17:14;;;;;;;27.00;20.67;;;8.00;72.30;;;;;;4999768;28;20182;-91
2023/03/26 10:20:22;;;;;;;27.47;21.47;;;8.40;70.40;;;;;;4996863;28;20174;-90
2023/03/26 10:22:55;;;;;;;37.60;25.33;;;8.50;68.60;;;;;;4996443;28;20183;-90
2023/03/26 10:25:45;;;;;;;30.60;22.93;;;8.10;68.50;;;;;;4995444;28;20174;-91
2023/03/26 10:28:30;;;;;;;29.40;22.53;;;7.90;70.10;;;;;;4997046;28;20230;-92
2023/03/26 10:31:09;;;;;;;32.63;27.03;;;8.20;70.40;;;;;;4996546;28;20167;-91
2023/03/26 10:34:00;;;;;;;39.13;26.27;;;8.20;68.80;;;;;;4997001;28;20249;-92
2023/03/26 10:36:35;;;;;;;30.33;21.57;;;7.80;69.00;;;;;;4995246;28;20657;-91
2023/03/26 10:39:25;;;;;;;29.80;21.07;;;8.00;71.10;;;;;;4996033;28;20213;-91
2023/03/26 10:42:09;;;;;;;35.33;23.67;;;8.20;69.80;;;;;;4998504;28;20197;-91
2023/03/26 10:44:48;;;;;;;32.70;22.33;;;8.60;69.20;;;;;;4995647;28;20182;-91
2023/03/26 10:47:32;;;;;;;31.43;21.03;;;8.60;67.60;;;;;;4997869;28;20194;-92
2023/03/26 10:50:25;;;;;;;27.03;21.50;;;8.80;69.10;;;;;;4995176;28;20193;-91
2023/03/26 10:53:12;;;;;;;30.00;26.53;;;8.80;66.50;;;;;;4995133;28;20333;-90
2023/03/26 10:55:44;;;;;;;36.13;26.90;;;8.60;66.90;;;;;;4995064;28;20182;-89
2023/03/26 10:58:26;;;;;;;39.43;22.17;;;8.30;65.90;;;;;;4994916;28;20229;-87
2023/03/26 11:01:17;;;;;;;34.03;23.63;;;8.50;69.00;;;;;;4994937;28;20181;-87
2023/03/26 11:03:54;;;;;;;33.43;28.03;;;8.50;67.80;;;;;;4994821;28;20178;-87
2023/03/26 11:06:34;;;;;;;27.93;22.30;;;8.30;65.20;;;;;;4995604;28;20210;-89
2023/03/26 11:09:32;;;;;;;30.70;27.40;;;8.60;67.80;;;;;;4994843;28;20202;-89
2023/03/26 11:12:27;;;;;;;25.50;21.77;;;8.90;68.60;;;;;;4996097;28;20158;-89
2023/03/26 11:15:04;;;;;;;25.73;20.77;;;9.00;66.20;;;;;;4995257;28;20241;-90
2023/03/26 11:17:38;;;;;;;30.13;21.50;;;9.20;66.10;;;;;;4995783;28;20717;-89
2023/03/26 11:20:41;;;;;;;29.13;22.47;;;9.50;66.10;;;;;;4995211;28;20244;-90
2023/03/26 11:23:19;;;;;;;25.80;23.27;;;9.50;65.20;;;;;;4952563;28;20213;-89
2023/03/26 11:26:00;;;;;;;31.43;26.37;;;9.30;62.70;;;;;;4994229;28;20284;-89
2023/03/26 11:28:59;;;;;;;34.70;26.40;;;9.40;64.00;;;;;;4994101;28;20198;-90
2023/03/26 11:31:27;;;;;;;31.77;27.93;;;9.80;64.70;;;;;;4994634;28;20170;-90
2023/03/26 11:33:59;;;;;;;35.73;29.47;;;9.80;62.10;;;;;;4993946;28;20206;-90
2023/03/26 11:36:30;;;;;;;27.80;22.57;;;9.70;63.70;;;;;;4995356;28;20241;-90
2023/03/26 11:39:00;;;;;;;33.87;21.10;;;10.00;63.70;;;;;;4995290;28;20252;-89
2023/03/26 11:41:29;;;;;;;27.60;24.70;;;9.80;64.20;;;;;;4995220;28;20181;-90
2023/03/26 11:44:05;;;;;;;25.70;22.57;;;10.10;64.30;;;;;;4994738;28;20174;-90
2023/03/26 11:46:34;;;;;;;30.67;20.97;;;9.90;62.70;;;;;;4995330;28;20556;-89
2023/03/26 11:49:05;;;;;;;27.43;21.33;;;10.10;63.60;;;;;;4995261;28;20660;-91
2023/03/26 11:51:55;;;;;;;34.57;21.30;;;10.30;63.10;;;;;;4995049;28;20258;-91
2023/03/26 11:54:21;;;;;;;33.63;21.53;;;10.40;63.00;;;;;;4995183;28;20181;-90
2023/03/26 11:56:52;;;;;;;31.87;27.77;;;10.50;60.90;;;;;;4995029;28;20189;-91
2023/03/26 11:59:47;;;;;;;33.53;22.70;;;10.30;58.90;;;;;;4994924;28;20194;-91
2023/03/26 12:02:13;;;;;;;31.63;24.67;;;10.10;61.00;;;;;;4994206;28;20666;-92
2023/03/26 12:04:40;;;;;;;40.67;23.33;;;10.40;61.60;;;;;;4993720;28;20269;-91
2023/03/26 12:07:18;;;;;;;33.63;23.60;;;10.70;62.00;;;;;;4993397;28;20197;-91
2023/03/26 12:09:57;;;;;;;30.10;26.70;;;10.70;60.20;;;;;;4993902;28;20165;-91
2023/03/26 12:12:32;;;;;;;24.60;20.27;;;10.40;64.10;;;;;;4994658;28;20206;-90
2023/03/26 12:14:59;;;;;;;30.50;27.40;;;10.70;61.70;;;;;;4994241;28;20177;-90
2023/03/26 12:17:36;;;;;;;29.83;24.80;;;10.50;61.00;;;;;;4995309;28;20198;-88
2023/03/26 12:20:21;;;;;;;29.10;22.10;;;10.30;61.20;;;;;;4993879;28;20177;-90
2023/03/26 12:22:47;;;;;;;26.80;19.80;;;10.90;61.70;;;;;;4994202;28;20181;-89
2023/03/26 12:25:15;;;;;;;27.87;19.97;;;11.00;59.00;;;;;;4993850;28;20185;-90
2023/03/26 12:27:49;;;;;;;26.27;19.30;;;11.10;58.30;;;;;;4994338;28;20198;-89
2023/03/26 12:30:24;;;;;;;25.23;19.30;;;11.10;59.30;;;;;;4994903;28;20184;-90
2023/03/26 12:32:52;;;;;;;26.70;18.57;;;10.80;60.30;;;;;;4994469;28;20158;-89
2023/03/26 12:35:29;;;;;;;26.20;18.00;;;11.10;59.10;;;;;;4994329;28;20178;-89
2023/03/26 12:38:12;;;;;;;23.73;18.53;;;11.50;57.70;;;;;;4993391;28;20676;-90
2023/03/26 12:40:39;;;;;;;30.43;18.80;;;11.50;56.00;;;;;;4994387;28;20190;-90
2023/03/26 12:43:42;;;;;;;26.63;18.90;;;11.60;57.30;;;;;;4994496;28;20174;-90
2023/03/26 12:46:24;;;;;;;22.80;19.03;;;11.80;57.50;;;;;;4993992;28;20197;-89
2023/03/26 12:48:55;;;;;;;29.60;19.13;;;11.00;58.70;;;;;;4992895;28;20209;-89
2023/03/26 12:51:33;;;;;;;32.47;18.73;;;11.40;60.50;;;;;;4993705;28;20158;-88
2023/03/26 12:54:27;;;;;;;21.83;18.50;;;11.40;60.70;;;;;;4994012;28;20184;-92
2023/03/26 12:57:17;;;;;;;23.77;17.50;;;10.80;57.00;;;;;;4995169;28;20182;-91
2023/03/26 12:59:54;;;;;;;25.90;18.87;;;11.20;57.70;;;;;;4993946;28;20289;-91
2023/03/26 13:02:43;;;;;;;24.73;18.70;;;11.50;58.90;;;;;;4994246;28;20699;-91
2023/03/26 13:05:38;;;;;;;28.30;18.70;;;11.50;55.80;;;;;;4980015;28;20236;-89
2023/03/26 13:08:15;;;;;;;24.70;17.10;;;11.60;55.80;;;;;;4992948;28;20228;-87
2023/03/26 13:10:59;;;;;;;19.93;17.00;;;11.20;56.20;;;;;;4992596;28;20263;-88
2023/03/26 13:13:55;;;;;;;23.80;17.37;;;11.60;57.90;;;;;;4992532;28;20178;-88
2023/03/26 13:16:36;;;;;;;18.90;16.90;;;11.70;56.40;;;;;;4993762;28;20158;-88
2023/03/26 13:19:14;;;;;;;21.40;16.90;;;11.50;58.10;;;;;;4993847;28;20189;-88
2023/03/26 13:22:10;;;;;;;31.47;16.50;;;11.60;57.50;;;;;;4992558;28;20177;-87
2023/03/26 13:24:57;;;;;;;28.30;17.60;;;11.70;58.40;;;;;;4993840;28;20182;-87
2023/03/26 13:27:50;;;;;;;22.40;17.00;;;12.20;57.80;;;;;;4992715;28;20213;-87
2023/03/26 13:30:33;;;;;;;23.30;17.57;;;12.10;54.40;;;;;;4992544;28;20720;-87
2023/03/26 13:33:18;;;;;;;28.30;17.63;;;11.80;59.10;;;;;;4993725;28;20166;-87
2023/03/26 13:35:54;;;;;;;31.13;21.07;;;11.90;58.40;;;;;;4992683;28;20261;-89
2023/03/26 13:38:44;;;;;;;30.03;22.10;;;11.10;57.40;;;;;;4992952;28;20197;-89
2023/03/26 13:41:28;;;;;;;24.53;22.07;;;11.40;55.50;;;;;;4993700;28;20174;-89
2023/03/26 13:44:19;;;;;;;30.47;22.47;;;11.40;56.70;;;;;;4992644;28;20177;-89
2023/03/26 13:46:56;;;;;;;26.63;19.70;;;10.90;59.00;;;;;;4993102;28;20194;-90